createdAt,value
2022-10-28T00:02:28.482Z,93.75
2022-10-28T00:07:36.019Z,93.84
2022-10-28T00:12:43.248Z,93.67
2022-10-28T00:17:56.668Z,93.66
2022-10-28T00:23:03.805Z,93.61
2022-10-28T00:28:10.973Z,93.73
2022-10-28T00:33:18.025Z,93.60
2022-10-28T00:38:25.830Z,93.70
2022-10-28T00:43:42.005Z,93.62
2022-10-28T00:48:53.552Z,93.79
2022-10-28T00:54:01.320Z,93.67
2022-10-28T00:59:15.646Z,93.78
2022-10-28T01:04:23.879Z,93.84
2022-10-28T01:09:31.101Z,94.10
2022-10-28T01:14:52.866Z,94.12
2022-10-28T01:20:11.328Z,94.09
2022-10-28T01:25:54.295Z,94.05
2022-10-28T01:31:29.933Z,94.15
2022-10-28T01:36:42.686Z,94.02
2022-10-28T01:41:58.314Z,94.11
2022-10-28T01:47:12.025Z,94.12
2022-10-28T01:52:23.848Z,94.01
2022-10-28T01:57:33.079Z,94.05
2022-10-28T02:02:41.215Z,94.21
2022-10-28T02:07:49.426Z,94.16
2022-10-28T02:12:59.309Z,94.13
2022-10-28T02:18:19.714Z,94.21
2022-10-28T02:23:37.347Z,94.26
2022-10-28T02:28:50.089Z,94.12
2022-10-28T02:34:02.611Z,94.18
2022-10-28T02:39:14.160Z,94.25
2022-10-28T02:44:25.411Z,94.12
2022-10-28T02:49:39.047Z,94.06
2022-10-28T02:54:52.724Z,94.20
2022-10-28T03:00:01.775Z,94.07
2022-10-28T03:05:11.105Z,94.03
2022-10-28T03:10:18.532Z,94.05
2022-10-28T03:15:25.670Z,94.23
2022-10-28T03:20:32.911Z,94.15
2022-10-28T03:25:40.421Z,94.02
2022-10-28T03:30:47.523Z,94.04
2022-10-28T03:35:54.907Z,94.04
2022-10-28T03:41:02.054Z,94.03
2022-10-28T03:46:09.350Z,94.10
2022-10-28T03:51:16.759Z,94.20
2022-10-28T03:56:24.040Z,94.07
2022-10-28T04:01:32.678Z,94.04
2022-10-28T04:06:40.284Z,94.15
2022-10-28T04:11:50.599Z,94.14
2022-10-28T04:16:57.794Z,94.18
2022-10-28T04:22:05.071Z,94.18
2022-10-28T04:27:12.190Z,94.33
2022-10-28T04:32:19.289Z,94.28
2022-10-28T04:37:26.791Z,94.31
2022-10-28T04:42:34.004Z,94.18
2022-10-28T04:47:41.191Z,94.19
2022-10-28T04:52:48.764Z,94.17
2022-10-28T04:58:00.865Z,94.18
2022-10-28T05:03:07.985Z,94.39
2022-10-28T05:08:15.134Z,94.53
2022-10-28T05:13:22.504Z,94.49
2022-10-28T05:18:29.704Z,94.29
2022-10-28T05:23:36.694Z,94.36
2022-10-28T05:28:44.168Z,94.24
2022-10-28T05:33:51.257Z,94.27
2022-10-28T05:38:58.489Z,94.38
2022-10-28T05:44:05.970Z,94.38
2022-10-28T05:49:13.253Z,94.39
2022-10-28T05:54:21.514Z,94.48
2022-10-28T05:59:28.728Z,94.58
2022-10-28T06:04:35.829Z,94.72
2022-10-28T06:09:43.421Z,94.83
2022-10-28T06:14:49.070Z,94.81
2022-10-28T06:19:56.174Z,94.93
2022-10-28T06:25:03.446Z,95.16
2022-10-28T06:30:13.223Z,95.27
2022-10-28T06:35:20.997Z,95.31
2022-10-28T06:40:28.432Z,95.41
2022-10-28T06:45:36.252Z,95.41
2022-10-28T06:50:45.137Z,95.26
2022-10-28T06:55:57.044Z,95.21
2022-10-28T07:01:08.136Z,95.31
2022-10-28T07:06:26.176Z,95.21
2022-10-28T07:11:33.331Z,95.18
2022-10-28T07:16:40.417Z,94.98
2022-10-28T07:21:48.505Z,95.15
2022-10-28T07:26:57.777Z,94.98
2022-10-28T07:32:05.333Z,95.02
2022-10-28T07:37:14.003Z,94.81
2022-10-28T07:42:21.180Z,94.84
2022-10-28T07:47:28.367Z,94.83
2022-10-28T07:52:35.475Z,94.68
2022-10-28T07:57:42.909Z,94.73
2022-10-28T08:02:49.992Z,94.63
2022-10-28T08:07:59.558Z,94.59
2022-10-28T08:13:07.218Z,94.63
2022-10-28T08:18:14.255Z,94.65
2022-10-28T08:23:21.357Z,94.68
2022-10-28T08:28:28.557Z,94.71
2022-10-28T08:33:36.000Z,94.71
2022-10-28T08:38:45.647Z,94.67
2022-10-28T08:44:28.201Z,94.66
2022-10-28T08:49:39.496Z,94.32
2022-10-28T08:54:51.022Z,94.21
2022-10-28T09:00:00.071Z,93.93
2022-10-28T09:05:21.514Z,93.45
2022-10-28T09:10:49.313Z,93.33
2022-10-28T09:16:07.921Z,93.16
2022-10-28T09:21:24.387Z,93.05
2022-10-28T09:26:43.153Z,92.96
2022-10-28T09:32:19.145Z,92.68
2022-10-28T09:37:49.987Z,92.47
2022-10-28T09:43:24.532Z,92.38
2022-10-28T09:48:35.697Z,92.27
2022-10-28T09:54:02.095Z,91.94
2022-10-28T09:59:13.111Z,91.79
2022-10-28T10:04:24.100Z,91.68
2022-10-28T10:09:48.694Z,91.31
2022-10-28T10:15:20.486Z,91.14
2022-10-28T10:20:27.329Z,91.02
2022-10-28T10:25:34.151Z,90.96
2022-10-28T10:30:47.128Z,90.78
2022-10-28T10:36:21.111Z,90.55
2022-10-28T10:41:38.732Z,90.42
2022-10-28T10:46:45.504Z,90.33
2022-10-28T10:52:17.869Z,90.19
2022-10-28T10:57:26.116Z,89.92
2022-10-28T11:02:55.029Z,89.76
2022-10-28T11:08:06.661Z,89.18
2022-10-28T11:13:27.811Z,88.28
2022-10-28T11:18:43.849Z,87.33
2022-10-28T11:24:01.711Z,87.30
2022-10-28T11:29:26.926Z,86.43
2022-10-28T11:34:52.950Z,85.09
2022-10-28T11:40:16.854Z,85.09
2022-10-28T11:45:32.130Z,83.92
2022-10-28T11:50:50.375Z,82.83
2022-10-28T11:56:07.421Z,81.54
2022-10-28T12:01:30.666Z,80.99
2022-10-28T12:06:56.340Z,76.90
2022-10-28T12:12:17.772Z,77.63
2022-10-28T12:17:35.292Z,76.89
2022-10-28T12:23:03.794Z,75.71
2022-10-28T12:28:21.520Z,74.03
2022-10-28T12:33:34.314Z,71.98
2022-10-28T12:38:45.122Z,71.80
2022-10-28T12:43:57.439Z,70.19
2022-10-28T12:49:12.064Z,69.47
2022-10-28T12:54:23.177Z,68.60
2022-10-28T12:59:53.238Z,66.93
2022-10-28T13:05:23.074Z,66.92
2022-10-28T13:10:54.718Z,67.09
2022-10-28T13:16:36.567Z,63.19
2022-10-28T13:22:19.215Z,63.98
2022-10-28T13:27:26.500Z,64.96
2022-10-28T13:32:39.399Z,64.60
2022-10-28T13:37:50.212Z,62.40
2022-10-28T13:42:57.441Z,63.69
2022-10-28T13:48:35.064Z,62.46
2022-10-28T13:53:53.148Z,60.93
2022-10-28T13:59:02.028Z,60.62
2022-10-28T14:04:24.208Z,61.18
2022-10-28T14:09:34.058Z,60.48
2022-10-28T14:15:21.700Z,60.78
2022-10-28T14:20:59.334Z,60.72
2022-10-28T14:26:07.252Z,61.52
2022-10-28T14:31:46.509Z,61.18
2022-10-28T14:37:01.408Z,61.48
2022-10-28T14:42:24.734Z,61.51
2022-10-28T14:47:54.333Z,62.61
2022-10-28T14:53:26.826Z,62.78
2022-10-28T14:58:39.585Z,63.41
2022-10-28T15:03:51.286Z,63.53
2022-10-28T15:09:04.039Z,64.28
2022-10-28T15:14:32.497Z,64.30
2022-10-28T15:19:39.617Z,64.46
2022-10-28T15:25:06.684Z,64.99
2022-10-28T15:30:20.974Z,65.64
2022-10-28T15:35:42.580Z,66.34
2022-10-28T15:40:50.493Z,66.91
2022-10-28T15:46:09.792Z,67.55
2022-10-28T15:51:19.607Z,67.97
2022-10-28T15:56:28.319Z,68.25
2022-10-28T16:01:40.010Z,68.47
2022-10-28T16:06:47.697Z,68.80
2022-10-28T16:11:57.626Z,69.20
2022-10-28T16:17:13.755Z,69.66
2022-10-28T16:22:20.974Z,70.09
2022-10-28T16:27:31.029Z,70.38
2022-10-28T16:32:42.159Z,70.70
2022-10-28T16:37:54.739Z,71.04
2022-10-28T16:43:02.648Z,71.38
2022-10-28T16:48:14.247Z,71.62
2022-10-28T16:53:21.858Z,71.89
2022-10-28T16:58:46.886Z,72.21
2022-10-28T17:03:54.387Z,72.42
2022-10-28T17:09:19.312Z,72.91
2022-10-28T17:14:43.931Z,73.08
2022-10-28T17:19:51.278Z,73.50
2022-10-28T17:24:58.226Z,73.97
2022-10-28T17:30:06.113Z,74.15
2022-10-28T17:35:30.782Z,74.42
2022-10-28T17:40:58.545Z,74.77
2022-10-28T17:46:09.503Z,75.03
2022-10-28T17:51:17.602Z,75.12
2022-10-28T17:56:42.510Z,75.39
2022-10-28T18:01:49.703Z,75.82
2022-10-28T18:07:14.605Z,76.08
2022-10-28T18:12:21.620Z,76.15
2022-10-28T18:17:28.804Z,76.48
2022-10-28T18:22:35.949Z,76.61
2022-10-28T18:27:43.727Z,76.78
2022-10-28T18:32:50.865Z,76.89
2022-10-28T18:37:58.139Z,77.22
2022-10-28T18:43:05.323Z,77.27
2022-10-28T18:48:12.515Z,77.40
2022-10-28T18:53:40.914Z,77.61
2022-10-28T18:58:51.531Z,77.68
2022-10-28T19:03:59.928Z,77.92
2022-10-28T19:09:07.633Z,78.22
2022-10-28T19:14:14.808Z,78.47
2022-10-28T19:19:39.513Z,78.52
2022-10-28T19:24:46.661Z,78.79
2022-10-28T19:29:53.693Z,79.12
2022-10-28T19:35:00.697Z,79.18
2022-10-28T19:40:09.288Z,79.39
2022-10-28T19:45:16.576Z,79.48
2022-10-28T19:50:23.596Z,79.81
2022-10-28T19:55:30.658Z,79.90
2022-10-28T20:00:37.657Z,80.10
2022-10-28T20:05:44.589Z,80.37
2022-10-28T20:11:01.117Z,80.41
2022-10-28T20:16:11.815Z,80.62
2022-10-28T20:21:20.703Z,80.79
2022-10-28T20:26:45.140Z,81.12
2022-10-28T20:31:53.006Z,81.25
2022-10-28T20:37:00.005Z,81.25
2022-10-28T20:42:24.583Z,81.46
2022-10-28T20:47:31.577Z,81.51
2022-10-28T20:52:57.101Z,81.57
2022-10-28T20:58:04.358Z,81.64
2022-10-28T21:03:11.589Z,81.84
2022-10-28T21:08:36.532Z,81.92
2022-10-28T21:13:45.296Z,82.06
2022-10-28T21:18:52.362Z,82.00
2022-10-28T21:23:59.561Z,82.05
2022-10-28T21:29:06.836Z,82.04
2022-10-28T21:34:31.469Z,82.34
2022-10-28T21:39:39.892Z,82.35
2022-10-28T21:44:46.936Z,82.44
2022-10-28T21:49:54.475Z,82.48
2022-10-28T21:55:09.680Z,82.73
2022-10-28T22:00:45.493Z,82.53
2022-10-28T22:05:55.335Z,82.58
2022-10-28T22:11:04.025Z,82.75
2022-10-28T22:16:16.197Z,82.79
2022-10-28T22:21:41.245Z,83.03
2022-10-28T22:26:48.322Z,83.09
2022-10-28T22:32:12.869Z,83.12
2022-10-28T22:37:37.970Z,83.22
2022-10-28T22:43:02.656Z,83.39
2022-10-28T22:48:10.189Z,83.41
2022-10-28T22:53:17.332Z,83.50
2022-10-28T22:58:41.902Z,83.77
2022-10-28T23:03:50.655Z,83.72
2022-10-28T23:08:57.848Z,83.56
2022-10-28T23:14:04.848Z,83.63
2022-10-28T23:19:11.892Z,83.74
2022-10-28T23:24:19.119Z,83.83
2022-10-28T23:29:26.261Z,83.79
2022-10-28T23:34:33.348Z,83.88
2022-10-28T23:39:40.806Z,83.75
2022-10-28T23:44:47.818Z,83.73
2022-10-28T23:49:54.923Z,83.96
2022-10-28T23:55:01.977Z,84.14
